createdAt,value
2022-09-23T00:01:16.107Z,7.30
2022-09-23T00:03:47.308Z,6.43
2022-09-23T00:06:23.343Z,5.82
2022-09-23T00:08:50.632Z,6.10
2022-09-23T00:11:23.459Z,5.90
2022-09-23T00:13:53.332Z,7.10
2022-09-23T00:16:33.495Z,5.65
2022-09-23T00:19:02.144Z,5.70
2022-09-23T00:21:29.393Z,5.53
2022-09-23T00:23:56.349Z,5.20
2022-09-23T00:26:23.831Z,6.15
2022-09-23T00:28:50.640Z,7.03
2022-09-23T00:31:23.629Z,6.00
2022-09-23T00:34:01.809Z,5.57
2022-09-23T00:36:29.841Z,5.70
2022-09-23T00:38:57.322Z,5.50
2022-09-23T00:41:24.714Z,5.65
2022-09-23T00:43:59.375Z,5.97
2022-09-23T00:46:32.759Z,6.20
2022-09-23T00:49:12.716Z,6.07
2022-09-23T00:51:48.999Z,6.10
2022-09-23T00:54:16.731Z,5.38
2022-09-23T00:56:43.643Z,5.63
2022-09-23T00:59:10.889Z,5.50
2022-09-23T01:01:39.032Z,4.88
2022-09-23T01:04:07.086Z,5.40
2022-09-23T01:06:33.825Z,5.20
2022-09-23T01:09:00.670Z,5.25
2022-09-23T01:11:45.730Z,5.35
2022-09-23T01:14:34.444Z,5.60
2022-09-23T01:17:19.762Z,5.40
2022-09-23T01:19:57.886Z,5.18
2022-09-23T01:22:27.083Z,5.10
2022-09-23T01:25:13.735Z,4.80
2022-09-23T01:27:59.133Z,4.57
2022-09-23T01:30:37.780Z,4.68
2022-09-23T01:33:18.755Z,5.20
2022-09-23T01:36:09.626Z,5.13
2022-09-23T01:38:44.874Z,5.22
2022-09-23T01:41:40.609Z,5.45
2022-09-23T01:44:13.456Z,5.45
2022-09-23T01:47:01.409Z,5.43
2022-09-23T01:49:35.733Z,5.20
2022-09-23T01:52:17.718Z,5.40
2022-09-23T01:54:50.684Z,5.80
2022-09-23T01:57:35.324Z,5.80
2022-09-23T02:00:23.581Z,5.75
2022-09-23T02:02:58.263Z,6.22
2022-09-23T02:05:33.303Z,6.22
2022-09-23T02:08:11.902Z,5.63
2022-09-23T02:10:44.246Z,5.35
2022-09-23T02:13:20.740Z,5.22
2022-09-23T02:15:56.211Z,5.57
2022-09-23T02:18:33.484Z,5.50
2022-09-23T02:21:04.722Z,5.90
2022-09-23T02:23:42.752Z,5.60
2022-09-23T02:26:45.839Z,5.82
2022-09-23T02:29:33.850Z,5.30
2022-09-23T02:32:15.958Z,5.50
2022-09-23T02:35:04.189Z,5.65
2022-09-23T02:37:51.407Z,5.70
2022-09-23T02:40:47.270Z,4.90
2022-09-23T02:43:41.188Z,5.05
2022-09-23T02:46:08.225Z,4.78
2022-09-23T02:48:56.956Z,4.90
2022-09-23T02:51:29.300Z,5.10
2022-09-23T02:53:58.506Z,4.70
2022-09-23T02:56:25.228Z,4.72
2022-09-23T02:58:54.384Z,5.10
2022-09-23T03:01:45.263Z,4.97
2022-09-23T03:04:33.872Z,5.00
2022-09-23T03:07:17.616Z,5.10
2022-09-23T03:09:52.446Z,5.20
2022-09-23T03:12:53.067Z,5.07
2022-09-23T03:15:43.080Z,5.32
2022-09-23T03:18:18.202Z,5.05
2022-09-23T03:21:02.184Z,5.00
2022-09-23T03:23:38.001Z,5.30
2022-09-23T03:26:13.583Z,5.57
2022-09-23T03:28:43.871Z,5.57
2022-09-23T03:31:13.098Z,5.78
2022-09-23T03:33:43.530Z,5.55
2022-09-23T03:36:43.819Z,4.88
2022-09-23T03:39:15.159Z,5.35
2022-09-23T03:41:55.177Z,5.43
2022-09-23T03:44:21.995Z,4.93
2022-09-23T03:46:51.721Z,5.20
2022-09-23T03:49:30.194Z,4.90
2022-09-23T03:51:56.943Z,4.90
2022-09-23T03:54:23.457Z,4.75
2022-09-23T03:56:49.915Z,4.95
2022-09-23T03:59:16.836Z,4.70
2022-09-23T04:01:44.380Z,4.78
2022-09-23T04:04:10.902Z,5.18
2022-09-23T04:06:37.593Z,5.82
2022-09-23T04:09:04.486Z,5.65
2022-09-23T04:11:31.420Z,4.72
2022-09-23T04:14:00.112Z,4.90
2022-09-23T04:16:27.333Z,4.88
2022-09-23T04:18:54.215Z,4.43
2022-09-23T04:21:20.980Z,5.00
2022-09-23T04:23:48.159Z,4.70
2022-09-23T04:26:15.359Z,4.72
2022-09-23T04:28:42.154Z,4.32
2022-09-23T04:31:10.052Z,4.65
2022-09-23T04:33:37.765Z,4.68
2022-09-23T04:36:05.194Z,4.50
2022-09-23T04:38:31.892Z,4.53
2022-09-23T04:40:59.050Z,4.88
2022-09-23T04:43:26.111Z,4.72
2022-09-23T04:46:01.454Z,4.40
2022-09-23T04:48:29.400Z,4.30
2022-09-23T04:51:03.819Z,5.82
2022-09-23T04:53:31.183Z,5.00
2022-09-23T04:56:02.694Z,4.88
2022-09-23T04:58:29.677Z,4.63
2022-09-23T05:01:01.713Z,7.63
2022-09-23T05:03:54.055Z,4.93
2022-09-23T05:06:21.605Z,5.55
2022-09-23T05:08:54.823Z,5.43
2022-09-23T05:11:22.503Z,5.25
2022-09-23T05:13:59.105Z,5.22
2022-09-23T05:16:27.409Z,5.53
2022-09-23T05:18:54.518Z,5.95
2022-09-23T05:21:27.470Z,6.20
2022-09-23T05:23:59.006Z,6.05
2022-09-23T05:26:28.338Z,6.25
2022-09-23T05:28:55.780Z,5.90
2022-09-23T05:31:25.300Z,5.90
2022-09-23T05:34:03.905Z,6.15
2022-09-23T05:36:37.573Z,6.47
2022-09-23T05:39:06.227Z,5.95
2022-09-23T05:41:34.347Z,6.18
2022-09-23T05:44:01.856Z,5.60
2022-09-23T05:46:33.224Z,5.65
2022-09-23T05:49:03.038Z,5.63
2022-09-23T05:51:40.206Z,5.63
2022-09-23T05:54:15.009Z,5.85
2022-09-23T05:56:41.988Z,16.02
2022-09-23T05:59:09.104Z,5.63
2022-09-23T06:01:39.541Z,5.88
2022-09-23T06:04:12.917Z,5.97
2022-09-23T06:06:42.421Z,6.20
2022-09-23T06:09:14.677Z,5.97
2022-09-23T06:11:42.416Z,6.28
2022-09-23T06:14:13.014Z,5.80
2022-09-23T06:16:40.538Z,5.63
2022-09-23T06:19:08.435Z,6.15
2022-09-23T06:21:39.960Z,5.50
2022-09-23T06:24:09.257Z,5.40
2022-09-23T06:26:37.865Z,5.93
2022-09-23T06:29:11.510Z,5.93
2022-09-23T06:31:41.199Z,5.65
2022-09-23T06:34:13.260Z,5.72
2022-09-23T06:36:46.184Z,6.88
2022-09-23T06:39:14.956Z,6.35
2022-09-23T06:41:42.081Z,5.38
2022-09-23T06:44:08.932Z,5.80
2022-09-23T06:46:46.697Z,6.10
2022-09-23T06:49:21.887Z,7.93
2022-09-23T06:51:49.293Z,6.28
2022-09-23T06:54:16.435Z,5.63
2022-09-23T06:56:45.107Z,5.78
2022-09-23T06:59:13.205Z,6.05
2022-09-23T07:01:40.275Z,5.65
2022-09-23T07:04:08.026Z,5.72
2022-09-23T07:06:34.783Z,6.28
2022-09-23T07:09:01.703Z,5.45
2022-09-23T07:11:29.786Z,4.80
2022-09-23T07:14:00.169Z,4.93
2022-09-23T07:19:08.300Z,5.90
2022-09-23T07:25:07.907Z,4.90
2022-09-23T07:27:35.375Z,4.72
2022-09-23T07:30:02.424Z,4.13
2022-09-23T07:32:49.325Z,4.78
2022-09-23T07:35:29.854Z,4.30
2022-09-23T07:37:56.803Z,4.50
2022-09-23T07:40:26.516Z,5.07
2022-09-23T07:42:54.488Z,5.18
2022-09-23T07:45:22.288Z,4.80
2022-09-23T07:47:50.362Z,5.60
2022-09-23T07:50:20.474Z,5.25
2022-09-23T07:52:47.697Z,5.32
2022-09-23T07:55:20.810Z,5.03
2022-09-23T07:57:47.941Z,7.50
2022-09-23T08:00:15.163Z,4.78
2022-09-23T08:02:42.050Z,4.68
2022-09-23T08:05:11.717Z,4.72
2022-09-23T08:07:38.497Z,4.80
2022-09-23T08:10:05.735Z,4.60
2022-09-23T08:12:35.569Z,3.85
2022-09-23T08:15:03.180Z,4.00
2022-09-23T08:17:34.331Z,4.10
2022-09-23T08:20:01.773Z,3.90
2022-09-23T08:22:28.611Z,3.80
2022-09-23T08:24:56.717Z,4.20
2022-09-23T08:27:26.910Z,3.67
2022-09-23T08:29:54.926Z,4.82
2022-09-23T08:32:24.935Z,3.58
2022-09-23T08:34:51.807Z,3.90
2022-09-23T08:37:18.655Z,3.90
2022-09-23T08:39:45.726Z,3.60
2022-09-23T08:42:22.384Z,3.58
2022-09-23T08:44:57.344Z,3.40
2022-09-23T08:47:31.661Z,4.07
2022-09-23T08:50:09.182Z,3.45
2022-09-23T08:53:05.824Z,4.78
2022-09-23T08:58:38.137Z,4.43
2022-09-23T09:04:45.305Z,4.10
2022-09-23T09:07:37.867Z,3.50
2022-09-23T09:10:18.963Z,4.00
2022-09-23T09:13:08.084Z,3.80
2022-09-23T09:16:16.084Z,3.83
2022-09-23T09:19:15.886Z,3.38
2022-09-23T09:21:46.490Z,3.30
2022-09-23T09:24:19.956Z,3.30
2022-09-23T09:26:46.726Z,3.00
2022-09-23T09:29:41.619Z,3.10
2022-09-23T09:32:39.005Z,3.03
2022-09-23T09:35:18.879Z,2.92
2022-09-23T09:37:48.459Z,3.20
2022-09-23T09:40:17.561Z,4.15
2022-09-23T09:42:49.791Z,3.38
2022-09-23T09:46:05.905Z,3.28
2022-09-23T09:51:22.284Z,2.60
2022-09-23T09:53:52.609Z,5.28
2022-09-23T09:56:33.494Z,2.60
2022-09-23T09:59:08.502Z,2.63
2022-09-23T10:01:36.617Z,2.80
2022-09-23T10:04:19.955Z,2.55
2022-09-23T10:07:12.392Z,2.50
2022-09-23T10:09:43.156Z,2.60
2022-09-23T10:12:21.401Z,2.75
2022-09-23T10:14:51.988Z,2.85
2022-09-23T10:17:24.566Z,14.52
2022-09-23T10:20:00.900Z,3.92
2022-09-23T10:22:45.441Z,2.03
2022-09-23T10:25:30.673Z,2.40
2022-09-23T10:28:03.607Z,2.50
2022-09-23T10:30:39.152Z,2.35
2022-09-23T10:33:28.177Z,2.33
2022-09-23T10:35:57.604Z,3.08
2022-09-23T10:38:25.172Z,2.55
2022-09-23T10:41:12.424Z,2.55
2022-09-23T10:44:17.381Z,2.63
2022-09-23T10:47:00.557Z,3.00
2022-09-23T10:49:53.278Z,3.42
2022-09-23T10:52:49.225Z,2.47
2022-09-23T10:55:18.649Z,2.83
2022-09-23T10:57:45.433Z,2.33
2022-09-23T11:00:27.894Z,2.00
2022-09-23T11:03:14.895Z,2.47
2022-09-23T11:06:04.156Z,2.00
2022-09-23T11:09:00.420Z,2.60
2022-09-23T11:11:51.421Z,1.92
2022-09-23T11:15:10.160Z,2.13
2022-09-23T11:18:01.215Z,5.45
2022-09-23T11:21:07.273Z,3.75
2022-09-23T11:23:40.876Z,2.60
2022-09-23T11:26:33.155Z,2.60
2022-09-23T11:29:29.257Z,3.20
2022-09-23T11:32:10.410Z,2.35
2022-09-23T11:34:45.925Z,2.63
2022-09-23T11:37:19.088Z,2.63
2022-09-23T11:40:01.548Z,2.60
2022-09-23T11:42:35.079Z,1.80
2022-09-23T11:45:09.893Z,3.05
2022-09-23T11:47:45.945Z,2.50
2022-09-23T11:50:44.614Z,2.70
2022-09-23T11:53:22.613Z,2.17
2022-09-23T11:55:58.397Z,2.33
2022-09-23T12:01:29.927Z,2.38
2022-09-23T12:04:13.854Z,2.88
2022-09-23T12:07:07.780Z,2.70
2022-09-23T12:09:58.421Z,1.83
2022-09-23T12:12:48.777Z,3.70
2022-09-23T12:15:30.374Z,3.30
2022-09-23T12:18:05.810Z,1.67
2022-09-23T12:21:01.614Z,2.00
2022-09-23T12:23:46.337Z,2.10
2022-09-23T12:26:23.156Z,1.67
2022-09-23T12:28:52.990Z,2.17
2022-09-23T12:31:30.557Z,2.35
2022-09-23T12:34:00.423Z,2.38
2022-09-23T12:36:34.696Z,2.13
2022-09-23T12:39:13.936Z,1.75
2022-09-23T12:41:43.916Z,2.15
2022-09-23T12:44:28.700Z,2.90
2022-09-23T12:47:28.134Z,2.13
2022-09-23T12:49:56.845Z,1.83
2022-09-23T12:52:33.666Z,1.70
2022-09-23T12:55:24.648Z,2.40
2022-09-23T12:57:51.256Z,2.00
2022-09-23T13:00:25.966Z,1.80
2022-09-23T13:03:18.347Z,2.00
2022-09-23T13:06:11.948Z,1.73
2022-09-23T13:08:41.811Z,1.70
2022-09-23T13:11:25.125Z,1.83
2022-09-23T13:13:52.469Z,2.25
2022-09-23T13:16:33.434Z,1.67
2022-09-23T13:19:43.095Z,1.52
2022-09-23T13:22:11.268Z,1.55
2022-09-23T13:24:45.410Z,1.45
2022-09-23T13:27:17.675Z,2.20
2022-09-23T13:29:51.941Z,1.80
2022-09-23T13:32:20.886Z,1.80
2022-09-23T13:34:58.537Z,2.38
2022-09-23T13:37:41.369Z,1.80
2022-09-23T13:40:17.441Z,1.65
2022-09-23T13:42:47.383Z,1.80
2022-09-23T13:45:20.999Z,2.00
2022-09-23T13:47:49.669Z,2.25
2022-09-23T13:50:22.805Z,2.90
2022-09-23T13:52:58.073Z,1.98
2022-09-23T13:55:33.802Z,1.85
2022-09-23T13:58:04.356Z,4.45
2022-09-23T14:03:16.303Z,2.45
2022-09-23T14:05:43.970Z,2.22
2022-09-23T14:08:10.886Z,2.08
2022-09-23T14:10:42.964Z,2.20
2022-09-23T14:13:17.151Z,2.05
2022-09-23T14:15:45.258Z,2.40
2022-09-23T14:18:26.373Z,2.13
2022-09-23T14:20:53.012Z,2.40
2022-09-23T14:23:19.937Z,3.33
2022-09-23T14:25:47.698Z,4.78
2022-09-23T14:28:17.161Z,2.60
2022-09-23T14:30:46.393Z,2.28
2022-09-23T14:33:20.030Z,2.00
2022-09-23T14:35:53.757Z,2.03
2022-09-23T14:38:46.195Z,1.88
2022-09-23T14:41:22.117Z,3.20
2022-09-23T14:43:55.224Z,2.20
2022-09-23T14:46:24.800Z,2.40
2022-09-23T14:49:16.653Z,2.38
2022-09-23T14:51:55.999Z,3.80
2022-09-23T14:54:40.415Z,2.67
2022-09-23T14:57:22.197Z,2.53
2022-09-23T14:59:56.111Z,4.35
2022-09-23T15:02:37.793Z,2.40
2022-09-23T15:05:10.491Z,3.20
2022-09-23T15:07:39.106Z,2.67
2022-09-23T15:10:33.264Z,2.35
2022-09-23T15:13:27.582Z,2.85
2022-09-23T15:15:55.904Z,2.38
2022-09-23T15:18:26.730Z,2.60
2022-09-23T15:21:01.168Z,3.08
2022-09-23T15:23:51.882Z,2.40
2022-09-23T15:26:21.475Z,2.10
2022-09-23T15:28:50.306Z,2.70
2022-09-23T15:31:18.920Z,2.92
2022-09-23T15:33:49.571Z,3.53
2022-09-23T15:36:26.137Z,3.50
2022-09-23T15:38:53.883Z,2.70
2022-09-23T15:41:24.197Z,2.60
2022-09-23T15:43:51.613Z,15.43
2022-09-23T15:46:25.990Z,2.63
2022-09-23T15:49:09.713Z,2.83
2022-09-23T15:51:45.576Z,2.28
2022-09-23T15:54:12.611Z,3.55
2022-09-23T15:56:40.415Z,4.00
2022-09-23T15:59:07.438Z,2.92
2022-09-23T16:01:36.804Z,2.55
2022-09-23T16:04:05.279Z,2.60
2022-09-23T16:06:36.071Z,2.60
2022-09-23T16:09:02.924Z,2.33
2022-09-23T16:11:33.981Z,2.72
2022-09-23T16:14:01.413Z,2.80
2022-09-23T16:16:29.576Z,2.60
2022-09-23T16:18:58.207Z,2.60
2022-09-23T16:21:27.657Z,2.70
2022-09-23T16:23:56.016Z,2.80
2022-09-23T16:26:28.205Z,2.70
2022-09-23T16:28:56.905Z,3.05
2022-09-23T16:31:25.729Z,3.38
2022-09-23T16:33:53.387Z,3.30
2022-09-23T16:36:35.843Z,3.80
2022-09-23T16:39:06.097Z,3.25
2022-09-23T16:41:33.344Z,4.18
2022-09-23T16:44:02.147Z,6.00
2022-09-23T16:46:35.193Z,5.55
2022-09-23T16:49:02.341Z,5.38
2022-09-23T16:51:35.700Z,4.38
2022-09-23T16:54:06.428Z,4.25
2022-09-23T16:56:33.267Z,4.72
2022-09-23T16:59:01.436Z,2.83
2022-09-23T17:01:47.669Z,3.60
2022-09-23T17:04:17.037Z,3.25
2022-09-23T17:06:52.168Z,3.53
2022-09-23T17:09:21.316Z,3.13
2022-09-23T17:12:05.311Z,3.30
2022-09-23T17:14:32.001Z,4.50
2022-09-23T17:16:59.151Z,3.13
2022-09-23T17:19:25.884Z,3.53
2022-09-23T17:21:53.613Z,3.38
2022-09-23T17:24:20.309Z,5.35
2022-09-23T17:26:52.015Z,9.98
2022-09-23T17:29:19.770Z,10.50
2022-09-23T17:31:46.823Z,5.00
2022-09-23T17:34:14.207Z,4.53
2022-09-23T17:36:41.502Z,5.45
2022-09-23T17:39:08.322Z,5.68
2022-09-23T17:41:35.186Z,9.02
2022-09-23T17:44:02.082Z,5.63
2022-09-23T17:46:30.273Z,4.55
2022-09-23T17:48:57.211Z,4.28
2022-09-23T17:51:25.632Z,8.40
2022-09-23T17:53:52.818Z,4.60
2022-09-23T17:56:21.042Z,3.97
2022-09-23T17:58:49.607Z,5.63
2022-09-23T18:01:24.183Z,5.28
2022-09-23T18:03:59.384Z,9.55
2022-09-23T18:06:35.584Z,5.65
2022-09-23T18:09:04.425Z,6.22
2022-09-23T18:11:36.860Z,5.50
2022-09-23T18:14:18.730Z,8.40
2022-09-23T18:16:47.976Z,6.38
2022-09-23T18:19:17.158Z,12.73
2022-09-23T18:21:46.830Z,8.10
2022-09-23T18:24:33.124Z,12.38
2022-09-23T18:27:01.213Z,10.98
2022-09-23T18:29:28.778Z,9.52
2022-09-23T18:31:55.812Z,10.60
2022-09-23T18:34:23.142Z,13.13
2022-09-23T18:36:56.131Z,6.35
2022-09-23T18:39:23.044Z,7.22
2022-09-23T18:41:49.666Z,14.30
2022-09-23T18:44:24.442Z,9.77
2022-09-23T18:46:53.800Z,10.13
2022-09-23T18:49:39.008Z,9.63
2022-09-23T18:52:05.701Z,23.13
2022-09-23T18:54:32.462Z,10.27
2022-09-23T18:57:00.709Z,9.10
2022-09-23T18:59:29.315Z,10.50
2022-09-23T19:01:57.035Z,6.30
2022-09-23T19:04:26.239Z,6.15
2022-09-23T19:06:56.545Z,15.20
2022-09-23T19:09:24.324Z,14.27
2022-09-23T19:11:52.747Z,6.85
2022-09-23T19:14:20.054Z,6.40
2022-09-23T19:16:49.297Z,10.02
2022-09-23T19:19:16.279Z,14.98
2022-09-23T19:21:43.353Z,7.80
2022-09-23T19:24:14.416Z,11.70
2022-09-23T19:26:42.104Z,7.30
2022-09-23T19:29:14.712Z,7.78
2022-09-23T19:31:42.459Z,28.77
2022-09-23T19:34:18.474Z,12.27
2022-09-23T19:36:47.729Z,10.98
2022-09-23T19:39:19.977Z,11.43
2022-09-23T19:41:47.131Z,10.15
2022-09-23T19:44:17.141Z,8.50
2022-09-23T19:46:45.912Z,8.23
2022-09-23T19:49:13.040Z,13.35
2022-09-23T19:51:40.292Z,10.45
2022-09-23T19:54:07.944Z,12.25
2022-09-23T19:56:35.789Z,17.95
2022-09-23T19:59:04.615Z,8.50
2022-09-23T20:01:32.140Z,10.00
2022-09-23T20:03:59.857Z,20.95
2022-09-23T20:06:42.988Z,26.38
2022-09-23T20:09:10.007Z,8.20
2022-09-23T20:11:38.971Z,8.23
2022-09-23T20:14:06.566Z,13.82
2022-09-23T20:16:37.270Z,8.10
2022-09-23T20:19:05.572Z,8.15
2022-09-23T20:21:33.561Z,7.45
2022-09-23T20:24:00.931Z,8.00
2022-09-23T20:26:48.643Z,9.15
2022-09-23T20:29:15.225Z,7.40
2022-09-23T20:31:42.181Z,8.02
2022-09-23T20:34:10.977Z,7.95
2022-09-23T20:36:40.882Z,8.95
2022-09-23T20:39:09.711Z,7.40
2022-09-23T20:41:37.835Z,8.30
2022-09-23T20:44:07.712Z,14.35
2022-09-23T20:46:34.693Z,8.30
2022-09-23T20:49:02.075Z,8.40
2022-09-23T20:51:29.491Z,7.30
2022-09-23T20:53:56.008Z,9.45
2022-09-23T20:56:23.444Z,8.02
2022-09-23T20:58:52.657Z,9.82
2022-09-23T21:01:19.373Z,9.65
2022-09-23T21:03:48.829Z,8.77
2022-09-23T21:06:17.426Z,8.93
2022-09-23T21:08:44.714Z,7.78
2022-09-23T21:11:14.895Z,7.68
2022-09-23T21:13:46.935Z,11.27
2022-09-23T21:16:16.264Z,8.77
2022-09-23T21:18:48.883Z,7.22
2022-09-23T21:21:17.430Z,10.32
2022-09-23T21:23:44.357Z,8.02
2022-09-23T21:26:18.202Z,8.52
2022-09-23T21:28:51.085Z,7.78
2022-09-23T21:31:30.488Z,7.88
2022-09-23T21:34:19.272Z,7.47
2022-09-23T21:36:48.079Z,7.22
2022-09-23T21:39:15.080Z,8.43
2022-09-23T21:41:42.483Z,7.47
2022-09-23T21:44:09.235Z,6.78
2022-09-23T21:46:39.647Z,6.70
2022-09-23T21:49:06.447Z,7.32
2022-09-23T21:51:38.598Z,6.88
2022-09-23T21:54:06.160Z,7.25
2022-09-23T21:56:37.861Z,6.43
2022-09-23T21:59:07.861Z,7.25
2022-09-23T22:01:37.205Z,6.30
2022-09-23T22:04:14.413Z,6.75
2022-09-23T22:09:13.761Z,6.38
2022-09-23T22:11:59.534Z,6.70
2022-09-23T22:14:26.750Z,6.25
2022-09-23T22:17:00.445Z,6.47
2022-09-23T22:19:34.844Z,6.30
2022-09-23T22:22:05.783Z,6.15
2022-09-23T22:24:32.805Z,6.30
2022-09-23T22:26:59.888Z,6.25
2022-09-23T22:29:45.139Z,6.07
2022-09-23T22:32:30.820Z,6.22
2022-09-23T22:34:59.928Z,6.72
2022-09-23T22:37:30.669Z,6.68
2022-09-23T22:39:58.448Z,6.60
2022-09-23T22:42:26.449Z,7.38
2022-09-23T22:44:56.811Z,5.90
2022-09-23T22:47:24.646Z,6.53
2022-09-23T22:49:55.018Z,6.47
2022-09-23T22:52:24.773Z,8.57
2022-09-23T22:54:55.515Z,7.20
2022-09-23T22:57:24.434Z,5.72
2022-09-23T22:59:53.404Z,5.85
2022-09-23T23:02:24.701Z,5.30
2022-09-23T23:04:52.186Z,7.43
2022-09-23T23:07:21.508Z,5.53
2022-09-23T23:09:52.676Z,6.68
2022-09-23T23:12:21.285Z,5.50
2022-09-23T23:14:50.900Z,8.40
2022-09-23T23:17:19.584Z,7.40
2022-09-23T23:19:47.785Z,6.53
2022-09-23T23:22:14.776Z,5.78
2022-09-23T23:24:42.143Z,5.82
2022-09-23T23:27:12.833Z,6.07
2022-09-23T23:29:40.055Z,6.10
2022-09-23T23:32:07.795Z,10.57
2022-09-23T23:34:34.480Z,5.85
2022-09-23T23:37:02.279Z,5.82
2022-09-23T23:39:29.754Z,6.50
2022-09-23T23:41:58.547Z,6.15
2022-09-23T23:44:27.629Z,6.30
2022-09-23T23:46:55.443Z,6.13
2022-09-23T23:49:23.169Z,5.75
2022-09-23T23:51:50.617Z,5.72
2022-09-23T23:54:17.288Z,6.00
2022-09-23T23:56:44.390Z,6.60
2022-09-23T23:59:11.568Z,5.93
